• Join FlightAware (Why Join?)
  • Login
  • US Flag 
01:30PM EDT


 

Airport Tracker/Info


-or-


 

Live Flight TrackerFlight Track Log ✈ N11TK ✈ 05-Mar-2014 ✈ KCRP - KHQZ

Flight Track Log - Related Links

Times and Time Zones

All times are in EST time to prevent confusion due to time zone crossing. See the N11TK flight status page for this flight to view local times or setup timezone preferences in your user account.

Time Position Orientation Groundspeed Altitude Reporting Facility
EST Latitude Longitude Course Direction KTS MPH feet Rate Location/Type
04:05PM 27.7397 -97.5158 244° Southwest 126 145 1,000  Level Houston Center
04:06PM 27.7244 -97.5519 244° Southwest 147 169 2,000 1,140 Climbing Houston Center
04:06PM 27.7219 -97.5578 244° Southwest 141 162 2,200 1,260 Climbing Houston Center
04:07PM 27.7300 -97.5928 285° West 143 165 3,500 1,200 Climbing Houston Center
04:08PM 27.7672 -97.6097 338° Northwest 141 162 4,700 1,140 Climbing Houston Center
04:09PM 27.8061 -97.6261 340° North 142 163 5,900 1,140 Climbing Houston Center
04:10PM 27.8464 -97.6436 339° North 142 163 7,100 1,260 Climbing Houston Center
04:11PM 27.8856 -97.6603 339° North 144 166 8,600 1,320 Climbing Houston Center
04:12PM 27.9253 -97.6769 340° North 145 167 9,900 1,200 Climbing Houston Center
04:13PM 27.9653 -97.6933 340° North 146 168 11,200 1,200 Climbing Houston Center
04:14PM 28.0064 -97.7114 339° North 152 175 12,500 1,320 Climbing Houston Center
04:15PM 28.0564 -97.7311 341° North 168 193 14,000 1,320 Climbing Houston Center
04:16PM 28.1031 -97.7486 342° North 172 198 15,300 1,200 Climbing Houston Center
04:17PM 28.1478 -97.7617 346° North 174 200 16,500 1,200 Climbing Houston Center
04:18PM 28.2003 -97.7769 346° North 176 203 17,800 1,080 Climbing Houston Center
04:19PM 28.2294 -97.8150 311° West 161 185 18,800 1,080 Climbing Houston Center
04:20PM 28.2628 -97.8539 314° West 159 183 20,100 1,020 Climbing Houston Center
04:22PM 28.2922 -97.8900 313° West 157 181 21,000 840 Climbing Houston Center
04:23PM 28.3219 -97.9256 314° West 154 177 21,900 480 Climbing Houston Center
04:24PM 28.3533 -97.9644 313° West 163 188 22,000  Climbing Houston Center
04:25PM 28.3914 -98.0106 313° West 188 216 22,000  Level Houston Center
04:26PM 28.4325 -98.0625 312° West 199 229 22,000  Level Houston Center
04:27PM 28.4717 -98.1094 314° West 200 230 22,000  Level Houston Center
04:28PM 28.5136 -98.1553 316° Northwest 202 232 22,000  Level Houston Center
04:29PM 28.5772 -98.1714 347° North 223 257 22,000  Level Houston Center
04:30PM 28.6389 -98.1906 345° North 224 258 22,000  Level Houston Center
04:31PM 28.7075 -98.2117 345° North 227 261 22,000  Level Houston Center
04:32PM 28.7692 -98.2317 344° North 231 266 22,000  Level Houston Center
04:33PM 28.8378 -98.2531 345° North 234 269 22,000  Level Houston Center
04:34PM 28.9017 -98.2725 345° North 236 272 22,000  Level Houston Center
04:35PM 28.9703 -98.2942 345° North 238 274 22,000  Level Houston Center
04:36PM 29.0342 -98.3131 346° North 237 273 22,000  Level Houston Center
04:37PM 29.1039 -98.3356 344° North 239 275 22,000  Level Houston Center
04:38PM 29.1692 -98.3561 345° North 241 277 22,000  Level Houston Center
04:39PM 29.2406 -98.3778 345° North 244 281 22,000  Level Houston Center
04:40PM 29.3072 -98.3983 345° North 246 283 22,000  Level Houston Center
04:41PM 29.3769 -98.4200 345° North 244 281 22,000  Level Houston Center
04:42PM 29.4411 -98.4400 345° North 241 277 22,000  Level Houston Center
04:43PM 29.5094 -98.4606 345° North 242 278 22,000  Level Houston Center
04:44PM 29.5800 -98.4425 13° North 267 307 22,000  Level Houston Center
04:45PM 29.6547 -98.3994 27° Northeast 277 319 22,000  Level Houston Center
04:46PM 29.7222 -98.3600 27° Northeast 275 316 22,000  Level Houston Center
04:47PM 29.7964 -98.3164 27° Northeast 275 316 22,000  Level Houston Center
04:48PM 29.8642 -98.2761 27° Northeast 275 316 22,000 -300 Level Houston Center
04:50PM 29.9392 -98.2325 27° Northeast 281 323 21,500 -480 Descending Houston Center
04:51PM 30.0094 -98.1917 27° Northeast 283 326 21,100 -300 Descending Houston Center
04:52PM 30.0839 -98.1475 27° Northeast 281 323 21,000 -60 Descending Houston Center
04:53PM 30.1511 -98.1083 27° Northeast 274 315 21,000  Level Houston Center
04:54PM 30.2239 -98.0656 27° Northeast 272 313 21,000  Level Houston Center
04:55PM 30.2908 -98.0256 27° Northeast 273 314 21,000  Level Houston Center
04:56PM 30.3556 -97.9856 28° Northeast 274 315 21,000  Level Houston Center
04:57PM 30.4219 -97.9425 29° Northeast 274 315 21,000  Level Houston Center
04:58PM 30.4889 -97.8986 29° Northeast 273 314 21,000  Level Houston Center
04:59PM 30.5558 -97.8547 29° Northeast 273 314 21,000  Level Houston Center
05:00PM 30.6339 -97.8039 29° Northeast 273 314 21,000  Level Houston Center
05:01PM 30.7014 -97.7597 29° Northeast 273 314 21,000  Level Houston Center
05:02PM 30.7686 -97.7156 29° Northeast 273 314 21,000  Level Houston Center
05:03PM 30.8372 -97.6708 29° Northeast 273 314 21,000  Level Houston Center
05:04PM 30.9028 -97.6272 30° Northeast 273 314 21,000  Level Houston Center
05:05PM 30.9703 -97.5831 29° Northeast 273 314 21,000  Level Houston Center
05:06PM 31.0375 -97.5386 30° Northeast 273 314 21,000  Level Houston Center
05:07PM 31.1153 -97.4858 30° Northeast 273 314 21,000  Level Houston Center
05:08PM 31.1842 -97.4422 28° Northeast 273 314 21,000  Level Houston Center
05:09PM 31.2361 -97.3850 43° Northeast 286 329 21,000  Level Houston Center
05:10PM 31.2744 -97.3097 59° Northeast 281 323 21,000  Level Houston Center
05:11PM 31.3428 -97.3169 355° North 248 285 21,000  Level Houston Center
05:12PM 31.4117 -97.3278 352° North 246 283 21,000  Level Houston Center
05:13PM 31.4789 -97.3397 351° North 245 282 21,000  Level Houston Center
05:14PM 31.5475 -97.3525 351° North 245 282 21,000 -420 Level Houston Center
05:15PM 31.6264 -97.3658 352° North 244 281 20,200 -960 Descending Houston Center
05:16PM 31.6967 -97.3792 351° North 252 290 19,100 -1,200 Descending Houston Center
05:17PM 31.7711 -97.3936 351° North 265 305 17,800 -1,260 Descending Houston Center
05:19PM 31.8425 -97.4050 352° North 261 300 16,500 -1,260 Descending Houston Center
05:20PM 31.9103 -97.4189 350° North 249 287 15,200 -1,260 Descending Houston Center
05:21PM 31.9800 -97.4311 352° North 249 287 13,900 -1,260 Descending Houston Center
05:22PM 32.0497 -97.4447 351° North 249 287 12,600 -1,500 Descending Houston Center
05:23PM 32.1308 -97.4592 351° North 249 287 10,900 -1,860 Descending Houston Center
05:24PM 32.2167 -97.4667 356° North 264 304 8,500 -1,980 Descending Dallas / Fort Worth TRACON
05:25PM 32.2897 -97.4764 354° North 259 298 6,500 -1,680 Descending Fort Worth Center
05:26PM 32.3283 -97.4072 57° Northeast 242 278 5,000 -840 Descending Fort Worth Center
05:27PM 32.3461 -97.3461 71° East 200 230 4,800  Descending Fort Worth Center
05:28PM 32.3617 -97.2886 72° East 177 204 5,000 -60 Climbing Fort Worth Center
05:29PM 32.3767 -97.2339 72° East 175 201 4,700 -540 Descending Fort Worth Center
05:30PM 32.3939 -97.1678 73° East 195 224 4,000 -360 Descending Fort Worth Center
05:31PM 32.4083 -97.1125 73° East 178 205 4,000  Level Fort Worth Center
05:32PM 32.4225 -97.0564 73° East 170 196 4,000  Level Fort Worth Center
05:33PM 32.4367 -97.0019 73° East 170 196 4,000  Level Fort Worth Center
05:34PM 32.4533 -96.9406 72° East 178 205 4,000  Level Fort Worth Center
05:35PM 32.4692 -96.8825 72° East 182 209 4,000 -300 Level Fort Worth Center
05:36PM 32.4914 -96.8214 67° East 189 217 3,400 -540 Descending Fort Worth Center
05:37PM 32.5217 -96.7722 54° Northeast 185 213 2,900 -300 Descending Fort Worth Center
05:38PM 32.5439 -96.7297 58° Northeast 177 204 2,800 -120 Descending Fort Worth Center